sensor_id;sensor_type;location;lat;lon;timestamp;temperature;humidity
18041;DHT22;9145;48.588;9.250;2023-02-22T00:00:14;7.50;99.90
18041;DHT22;9145;48.588;9.250;2023-02-22T00:02:48;7.40;99.90
18041;DHT22;9145;48.588;9.250;2023-02-22T00:05:16;7.40;99.90
18041;DHT22;9145;48.588;9.250;2023-02-22T00:07:46;7.50;99.90
18041;DHT22;9145;48.588;9.250;2023-02-22T00:10:14;7.50;99.90
18041;DHT22;9145;48.588;9.250;2023-02-22T00:12:45;7.40;99.90
18041;DHT22;9145;48.588;9.250;2023-02-22T00:15:13;7.40;99.90
18041;DHT22;9145;48.588;9.250;2023-02-22T00:17:40;7.30;99.90
18041;DHT22;9145;48.588;9.250;2023-02-22T00:20:08;7.30;99.90
18041;DHT22;9145;48.588;9.250;2023-02-22T00:22:39;7.40;99.90
18041;DHT22;9145;48.588;9.250;2023-02-22T00:25:07;7.40;99.90
18041;DHT22;9145;48.588;9.250;2023-02-22T00:27:34;7.40;99.90
18041;DHT22;9145;48.588;9.250;2023-02-22T00:30:02;7.30;99.90
18041;DHT22;9145;48.588;9.250;2023-02-22T00:32:29;7.30;99.90
18041;DHT22;9145;48.588;9.250;2023-02-22T00:34:56;7.00;99.90
18041;DHT22;9145;48.588;9.250;2023-02-22T00:37:22;6.70;99.90
18041;DHT22;9145;48.588;9.250;2023-02-22T00:39:50;6.40;99.90
18041;DHT22;9145;48.588;9.250;2023-02-22T00:42:18;6.50;99.90
18041;DHT22;9145;48.588;9.250;2023-02-22T00:44:45;6.60;99.90
18041;DHT22;9145;48.588;9.250;2023-02-22T00:47:12;6.70;99.90
18041;DHT22;9145;48.588;9.250;2023-02-22T00:49:38;6.70;99.90
18041;DHT22;9145;48.588;9.250;2023-02-22T00:52:05;6.70;99.90
18041;DHT22;9145;48.588;9.250;2023-02-22T00:54:33;6.70;99.90
18041;DHT22;9145;48.588;9.250;2023-02-22T00:57:00;6.70;99.90
18041;DHT22;9145;48.588;9.250;2023-02-22T00:59:29;6.80;99.90
18041;DHT22;9145;48.588;9.250;2023-02-22T01:01:56;7.00;99.90
18041;DHT22;9145;48.588;9.250;2023-02-22T01:04:24;7.00;99.90
18041;DHT22;9145;48.588;9.250;2023-02-22T01:06:50;7.00;99.90
18041;DHT22;9145;48.588;9.250;2023-02-22T01:09:18;6.80;99.90
18041;DHT22;9145;48.588;9.250;2023-02-22T01:11:46;6.70;99.90
18041;DHT22;9145;48.588;9.250;2023-02-22T01:14:13;6.60;99.90
18041;DHT22;9145;48.588;9.250;2023-02-22T01:16:41;6.30;99.90
18041;DHT22;9145;48.588;9.250;2023-02-22T01:19:08;6.10;99.90
18041;DHT22;9145;48.588;9.250;2023-02-22T01:21:38;6.10;99.90
18041;DHT22;9145;48.588;9.250;2023-02-22T01:24:05;6.00;99.90
18041;DHT22;9145;48.588;9.250;2023-02-22T01:26:32;6.00;99.90
18041;DHT22;9145;48.588;9.250;2023-02-22T01:28:59;5.90;99.90
18041;DHT22;9145;48.588;9.250;2023-02-22T01:31:26;5.70;99.90
18041;DHT22;9145;48.588;9.250;2023-02-22T01:33:54;5.60;99.90
18041;DHT22;9145;48.588;9.250;2023-02-22T01:36:21;5.70;99.90
18041;DHT22;9145;48.588;9.250;2023-02-22T01:38:47;5.70;99.90
18041;DHT22;9145;48.588;9.250;2023-02-22T01:41:14;5.70;99.90
18041;DHT22;9145;48.588;9.250;2023-02-22T01:43:42;5.80;99.90
18041;DHT22;9145;48.588;9.250;2023-02-22T01:46:20;5.90;99.90
18041;DHT22;9145;48.588;9.250;2023-02-22T01:48:51;5.90;99.90
18041;DHT22;9145;48.588;9.250;2023-02-22T01:51:22;5.90;99.90
18041;DHT22;9145;48.588;9.250;2023-02-22T01:53:54;6.00;99.90
18041;DHT22;9145;48.588;9.250;2023-02-22T01:56:25;6.10;99.90
18041;DHT22;9145;48.588;9.250;2023-02-22T01:58:55;6.20;99.90
18041;DHT22;9145;48.588;9.250;2023-02-22T02:01:24;6.30;99.90
18041;DHT22;9145;48.588;9.250;2023-02-22T02:03:55;6.30;99.90
18041;DHT22;9145;48.588;9.250;2023-02-22T02:06:25;6.30;99.90
18041;DHT22;9145;48.588;9.250;2023-02-22T02:08:57;6.30;99.90
18041;DHT22;9145;48.588;9.250;2023-02-22T02:11:25;6.30;99.90
18041;DHT22;9145;48.588;9.250;2023-02-22T02:13:53;6.20;99.90
18041;DHT22;9145;48.588;9.250;2023-02-22T02:16:21;6.30;99.90
18041;DHT22;9145;48.588;9.250;2023-02-22T02:18:49;6.30;99.90
18041;DHT22;9145;48.588;9.250;2023-02-22T02:21:45;6.30;99.90
18041;DHT22;9145;48.588;9.250;2023-02-22T02:24:36;6.40;99.90
18041;DHT22;9145;48.588;9.250;2023-02-22T02:27:11;6.30;99.90
18041;DHT22;9145;48.588;9.250;2023-02-22T02:30:03;6.30;99.90
18041;DHT22;9145;48.588;9.250;2023-02-22T02:32:51;6.30;99.90
18041;DHT22;9145;48.588;9.250;2023-02-22T02:35:28;6.30;99.90
18041;DHT22;9145;48.588;9.250;2023-02-22T02:38:03;6.30;99.90
18041;DHT22;9145;48.588;9.250;2023-02-22T02:40:34;6.20;99.90
18041;DHT22;9145;48.588;9.250;2023-02-22T02:43:06;6.20;99.90
18041;DHT22;9145;48.588;9.250;2023-02-22T02:45:42;6.10;99.90
18041;DHT22;9145;48.588;9.250;2023-02-22T02:48:13;6.00;99.90
18041;DHT22;9145;48.588;9.250;2023-02-22T02:50:43;5.80;99.90
18041;DHT22;9145;48.588;9.250;2023-02-22T02:53:13;5.80;99.90
18041;DHT22;9145;48.588;9.250;2023-02-22T02:55:41;5.70;99.90
18041;DHT22;9145;48.588;9.250;2023-02-22T02:58:16;5.70;99.90
18041;DHT22;9145;48.588;9.250;2023-02-22T03:00:44;5.60;99.90
18041;DHT22;9145;48.588;9.250;2023-02-22T03:06:28;5.60;99.90
18041;DHT22;9145;48.588;9.250;2023-02-22T03:09:07;5.50;99.90
18041;DHT22;9145;48.588;9.250;2023-02-22T03:11:44;5.40;99.90
18041;DHT22;9145;48.588;9.250;2023-02-22T03:14:18;5.30;99.90
18041;DHT22;9145;48.588;9.250;2023-02-22T03:16:51;5.10;99.90
18041;DHT22;9145;48.588;9.250;2023-02-22T03:19:25;5.10;99.90
18041;DHT22;9145;48.588;9.250;2023-02-22T03:21:56;5.00;99.90
18041;DHT22;9145;48.588;9.250;2023-02-22T03:24:30;5.00;99.90
18041;DHT22;9145;48.588;9.250;2023-02-22T03:27:02;5.00;99.90
18041;DHT22;9145;48.588;9.250;2023-02-22T03:29:36;5.00;99.90
18041;DHT22;9145;48.588;9.250;2023-02-22T03:32:08;5.00;99.90
18041;DHT22;9145;48.588;9.250;2023-02-22T03:34:40;5.10;99.90
18041;DHT22;9145;48.588;9.250;2023-02-22T03:37:13;5.00;99.90
18041;DHT22;9145;48.588;9.250;2023-02-22T03:39:42;5.00;99.90
18041;DHT22;9145;48.588;9.250;2023-02-22T03:42:13;5.00;99.90
18041;DHT22;9145;48.588;9.250;2023-02-22T03:44:43;5.00;99.90
18041;DHT22;9145;48.588;9.250;2023-02-22T03:47:15;5.00;99.90
18041;DHT22;9145;48.588;9.250;2023-02-22T03:49:51;5.10;99.90
18041;DHT22;9145;48.588;9.250;2023-02-22T03:52:19;5.10;99.90
18041;DHT22;9145;48.588;9.250;2023-02-22T03:54:48;5.20;99.90
18041;DHT22;9145;48.588;9.250;2023-02-22T03:57:23;5.20;99.90
18041;DHT22;9145;48.588;9.250;2023-02-22T03:59:50;5.20;99.90
18041;DHT22;9145;48.588;9.250;2023-02-22T04:02:17;5.20;99.90
18041;DHT22;9145;48.588;9.250;2023-02-22T04:04:46;5.10;99.90
18041;DHT22;9145;48.588;9.250;2023-02-22T04:07:13;5.10;99.90
18041;DHT22;9145;48.588;9.250;2023-02-22T04:09:40;5.10;99.90
18041;DHT22;9145;48.588;9.250;2023-02-22T04:12:07;5.10;99.90
18041;DHT22;9145;48.588;9.250;2023-02-22T04:14:34;5.20;99.90
18041;DHT22;9145;48.588;9.250;2023-02-22T04:17:01;5.30;99.90
18041;DHT22;9145;48.588;9.250;2023-02-22T04:19:27;5.20;99.90
18041;DHT22;9145;48.588;9.250;2023-02-22T04:21:56;5.20;99.90
18041;DHT22;9145;48.588;9.250;2023-02-22T04:24:23;5.20;99.90
18041;DHT22;9145;48.588;9.250;2023-02-22T04:26:49;5.20;99.90
18041;DHT22;9145;48.588;9.250;2023-02-22T04:29:16;5.30;99.90
18041;DHT22;9145;48.588;9.250;2023-02-22T04:31:43;5.20;99.90
18041;DHT22;9145;48.588;9.250;2023-02-22T04:34:10;5.30;99.90
18041;DHT22;9145;48.588;9.250;2023-02-22T04:36:37;5.10;99.90
18041;DHT22;9145;48.588;9.250;2023-02-22T04:39:08;4.90;99.90
18041;DHT22;9145;48.588;9.250;2023-02-22T04:41:34;4.80;99.90
18041;DHT22;9145;48.588;9.250;2023-02-22T04:44:01;4.70;99.90
18041;DHT22;9145;48.588;9.250;2023-02-22T04:46:28;4.70;99.90
18041;DHT22;9145;48.588;9.250;2023-02-22T04:48:56;4.60;99.90
18041;DHT22;9145;48.588;9.250;2023-02-22T04:51:23;4.60;99.90
18041;DHT22;9145;48.588;9.250;2023-02-22T04:53:50;4.60;99.90
18041;DHT22;9145;48.588;9.250;2023-02-22T04:56:19;4.60;99.90
18041;DHT22;9145;48.588;9.250;2023-02-22T04:58:46;4.70;99.90
18041;DHT22;9145;48.588;9.250;2023-02-22T05:01:13;4.60;99.90
18041;DHT22;9145;48.588;9.250;2023-02-22T05:03:40;4.60;99.90
18041;DHT22;9145;48.588;9.250;2023-02-22T05:06:07;4.60;99.90
18041;DHT22;9145;48.588;9.250;2023-02-22T05:08:34;4.60;99.90
18041;DHT22;9145;48.588;9.250;2023-02-22T05:11:01;4.60;99.90
18041;DHT22;9145;48.588;9.250;2023-02-22T05:13:29;4.60;99.90
18041;DHT22;9145;48.588;9.250;2023-02-22T05:15:56;4.60;99.90
18041;DHT22;9145;48.588;9.250;2023-02-22T05:18:23;4.60;99.90
18041;DHT22;9145;48.588;9.250;2023-02-22T05:20:50;4.70;99.90
18041;DHT22;9145;48.588;9.250;2023-02-22T05:23:17;4.70;99.90
18041;DHT22;9145;48.588;9.250;2023-02-22T05:25:43;4.80;99.90
18041;DHT22;9145;48.588;9.250;2023-02-22T05:28:13;4.80;99.90
18041;DHT22;9145;48.588;9.250;2023-02-22T05:30:41;4.80;99.90
18041;DHT22;9145;48.588;9.250;2023-02-22T05:33:08;4.80;99.90
18041;DHT22;9145;48.588;9.250;2023-02-22T05:35:36;4.80;99.90
18041;DHT22;9145;48.588;9.250;2023-02-22T05:38:03;4.80;99.90
18041;DHT22;9145;48.588;9.250;2023-02-22T05:40:30;4.80;99.90
18041;DHT22;9145;48.588;9.250;2023-02-22T05:42:58;4.70;99.90
18041;DHT22;9145;48.588;9.250;2023-02-22T05:45:27;4.80;99.90
18041;DHT22;9145;48.588;9.250;2023-02-22T05:47:55;4.80;99.90
18041;DHT22;9145;48.588;9.250;2023-02-22T05:50:23;4.70;99.90
18041;DHT22;9145;48.588;9.250;2023-02-22T05:52:50;4.60;99.90
18041;DHT22;9145;48.588;9.250;2023-02-22T05:55:19;4.60;99.90
18041;DHT22;9145;48.588;9.250;2023-02-22T05:57:47;4.50;99.90
18041;DHT22;9145;48.588;9.250;2023-02-22T06:00:16;4.50;99.90
18041;DHT22;9145;48.588;9.250;2023-02-22T06:02:43;4.50;99.90
18041;DHT22;9145;48.588;9.250;2023-02-22T06:05:12;4.40;99.90
18041;DHT22;9145;48.588;9.250;2023-02-22T06:07:39;4.40;99.90
18041;DHT22;9145;48.588;9.250;2023-02-22T06:10:06;4.50;99.90
18041;DHT22;9145;48.588;9.250;2023-02-22T06:12:33;4.60;99.90
18041;DHT22;9145;48.588;9.250;2023-02-22T06:14:59;4.60;99.90
18041;DHT22;9145;48.588;9.250;2023-02-22T06:17:26;4.60;99.90
18041;DHT22;9145;48.588;9.250;2023-02-22T06:19:54;4.60;99.90
18041;DHT22;9145;48.588;9.250;2023-02-22T06:22:23;4.60;99.90
18041;DHT22;9145;48.588;9.250;2023-02-22T06:24:49;4.60;99.90
18041;DHT22;9145;48.588;9.250;2023-02-22T06:27:16;4.50;99.90
18041;DHT22;9145;48.588;9.250;2023-02-22T06:29:44;4.50;99.90
18041;DHT22;9145;48.588;9.250;2023-02-22T06:32:12;4.50;99.90
18041;DHT22;9145;48.588;9.250;2023-02-22T06:34:39;4.50;99.90
18041;DHT22;9145;48.588;9.250;2023-02-22T06:37:06;4.50;99.90
18041;DHT22;9145;48.588;9.250;2023-02-22T06:39:34;4.50;99.90
18041;DHT22;9145;48.588;9.250;2023-02-22T06:42:01;4.50;99.90
18041;DHT22;9145;48.588;9.250;2023-02-22T06:44:28;4.50;99.90
18041;DHT22;9145;48.588;9.250;2023-02-22T06:46:55;4.50;99.90
18041;DHT22;9145;48.588;9.250;2023-02-22T06:49:24;4.50;99.90
18041;DHT22;9145;48.588;9.250;2023-02-22T06:51:52;4.50;99.90
18041;DHT22;9145;48.588;9.250;2023-02-22T06:54:19;4.50;99.90
18041;DHT22;9145;48.588;9.250;2023-02-22T06:56:47;4.60;99.90
18041;DHT22;9145;48.588;9.250;2023-02-22T06:59:14;4.60;99.90
18041;DHT22;9145;48.588;9.250;2023-02-22T07:01:41;4.70;99.90
18041;DHT22;9145;48.588;9.250;2023-02-22T07:04:08;4.70;99.90
18041;DHT22;9145;48.588;9.250;2023-02-22T07:06:36;4.70;99.90
18041;DHT22;9145;48.588;9.250;2023-02-22T07:09:03;4.70;99.90
18041;DHT22;9145;48.588;9.250;2023-02-22T07:11:29;4.70;99.90
18041;DHT22;9145;48.588;9.250;2023-02-22T07:13:58;4.80;99.90
18041;DHT22;9145;48.588;9.250;2023-02-22T07:16:24;4.80;99.90
18041;DHT22;9145;48.588;9.250;2023-02-22T07:18:51;4.70;99.90
18041;DHT22;9145;48.588;9.250;2023-02-22T07:21:18;4.70;99.90
18041;DHT22;9145;48.588;9.250;2023-02-22T07:23:50;4.70;99.90
18041;DHT22;9145;48.588;9.250;2023-02-22T07:26:17;4.70;99.90
18041;DHT22;9145;48.588;9.250;2023-02-22T07:28:44;4.70;99.90
18041;DHT22;9145;48.588;9.250;2023-02-22T07:31:12;4.80;99.90
18041;DHT22;9145;48.588;9.250;2023-02-22T07:33:39;4.80;99.90
18041;DHT22;9145;48.588;9.250;2023-02-22T07:36:06;4.80;99.90
18041;DHT22;9145;48.588;9.250;2023-02-22T07:38:33;4.90;99.90
18041;DHT22;9145;48.588;9.250;2023-02-22T07:41:00;4.90;99.90
18041;DHT22;9145;48.588;9.250;2023-02-22T07:43:28;5.00;99.90
18041;DHT22;9145;48.588;9.250;2023-02-22T07:45:58;5.00;99.90
18041;DHT22;9145;48.588;9.250;2023-02-22T07:48:29;5.00;99.90
18041;DHT22;9145;48.588;9.250;2023-02-22T07:50:57;5.00;99.90
18041;DHT22;9145;48.588;9.250;2023-02-22T07:53:26;5.00;99.90
18041;DHT22;9145;48.588;9.250;2023-02-22T07:55:54;5.10;99.90
18041;DHT22;9145;48.588;9.250;2023-02-22T07:58:23;5.20;99.90
18041;DHT22;9145;48.588;9.250;2023-02-22T08:00:50;5.30;99.90
18041;DHT22;9145;48.588;9.250;2023-02-22T08:03:19;5.20;99.90
18041;DHT22;9145;48.588;9.250;2023-02-22T08:05:49;5.20;99.90
18041;DHT22;9145;48.588;9.250;2023-02-22T08:08:16;5.20;99.90
18041;DHT22;9145;48.588;9.250;2023-02-22T08:10:43;5.10;99.90
18041;DHT22;9145;48.588;9.250;2023-02-22T08:13:10;5.20;99.90
18041;DHT22;9145;48.588;9.250;2023-02-22T08:15:38;5.30;99.90
18041;DHT22;9145;48.588;9.250;2023-02-22T08:18:07;5.20;99.90
18041;DHT22;9145;48.588;9.250;2023-02-22T08:20:35;5.30;99.90
18041;DHT22;9145;48.588;9.250;2023-02-22T08:23:04;5.40;99.90
18041;DHT22;9145;48.588;9.250;2023-02-22T08:25:31;5.50;99.90
18041;DHT22;9145;48.588;9.250;2023-02-22T08:27:59;5.60;99.90
18041;DHT22;9145;48.588;9.250;2023-02-22T08:30:27;5.80;99.90
18041;DHT22;9145;48.588;9.250;2023-02-22T08:32:55;6.00;99.90
18041;DHT22;9145;48.588;9.250;2023-02-22T08:35:23;6.10;99.90
18041;DHT22;9145;48.588;9.250;2023-02-22T08:37:52;6.20;99.90
18041;DHT22;9145;48.588;9.250;2023-02-22T08:40:22;6.30;99.90
18041;DHT22;9145;48.588;9.250;2023-02-22T08:42:49;6.50;99.90
18041;DHT22;9145;48.588;9.250;2023-02-22T08:45:17;6.70;99.90
18041;DHT22;9145;48.588;9.250;2023-02-22T08:47:44;6.80;99.90
18041;DHT22;9145;48.588;9.250;2023-02-22T08:50:17;7.00;99.90
18041;DHT22;9145;48.588;9.250;2023-02-22T08:52:44;7.20;99.90
18041;DHT22;9145;48.588;9.250;2023-02-22T08:55:11;7.40;99.90
18041;DHT22;9145;48.588;9.250;2023-02-22T08:57:39;7.50;99.90
18041;DHT22;9145;48.588;9.250;2023-02-22T09:00:08;7.60;99.90
18041;DHT22;9145;48.588;9.250;2023-02-22T09:02:35;7.60;99.90
18041;DHT22;9145;48.588;9.250;2023-02-22T09:05:01;7.60;99.90
18041;DHT22;9145;48.588;9.250;2023-02-22T09:07:30;7.70;99.90
18041;DHT22;9145;48.588;9.250;2023-02-22T09:09:57;7.80;99.90
18041;DHT22;9145;48.588;9.250;2023-02-22T09:12:23;8.00;99.90
18041;DHT22;9145;48.588;9.250;2023-02-22T09:14:52;8.10;99.90
18041;DHT22;9145;48.588;9.250;2023-02-22T09:17:18;8.20;99.90
18041;DHT22;9145;48.588;9.250;2023-02-22T09:19:45;8.40;99.90
18041;DHT22;9145;48.588;9.250;2023-02-22T09:22:12;8.60;99.90
18041;DHT22;9145;48.588;9.250;2023-02-22T09:24:39;8.70;99.90
18041;DHT22;9145;48.588;9.250;2023-02-22T09:27:07;8.90;99.90
18041;DHT22;9145;48.588;9.250;2023-02-22T09:29:36;9.10;99.90
18041;DHT22;9145;48.588;9.250;2023-02-22T09:32:05;9.20;99.90
18041;DHT22;9145;48.588;9.250;2023-02-22T09:34:32;9.30;99.90
18041;DHT22;9145;48.588;9.250;2023-02-22T09:37:00;9.50;99.90
18041;DHT22;9145;48.588;9.250;2023-02-22T09:39:29;9.60;99.90
18041;DHT22;9145;48.588;9.250;2023-02-22T09:42:08;9.50;99.90
18041;DHT22;9145;48.588;9.250;2023-02-22T09:44:41;9.60;99.90
18041;DHT22;9145;48.588;9.250;2023-02-22T09:47:14;9.80;99.90
18041;DHT22;9145;48.588;9.250;2023-02-22T09:49:47;10.00;99.90
18041;DHT22;9145;48.588;9.250;2023-02-22T09:52:24;10.20;99.90
18041;DHT22;9145;48.588;9.250;2023-02-22T09:54:58;10.30;99.90
18041;DHT22;9145;48.588;9.250;2023-02-22T09:57:34;10.40;99.90
18041;DHT22;9145;48.588;9.250;2023-02-22T10:00:11;10.50;99.90
18041;DHT22;9145;48.588;9.250;2023-02-22T10:02:45;10.60;99.90
18041;DHT22;9145;48.588;9.250;2023-02-22T10:05:18;11.00;99.90
18041;DHT22;9145;48.588;9.250;2023-02-22T10:07:51;11.20;99.90
18041;DHT22;9145;48.588;9.250;2023-02-22T10:10:21;11.50;99.90
18041;DHT22;9145;48.588;9.250;2023-02-22T10:12:55;11.50;99.90
18041;DHT22;9145;48.588;9.250;2023-02-22T10:15:43;11.50;99.90
18041;DHT22;9145;48.588;9.250;2023-02-22T10:18:51;11.50;99.90
18041;DHT22;9145;48.588;9.250;2023-02-22T10:21:34;11.50;99.90
18041;DHT22;9145;48.588;9.250;2023-02-22T10:24:13;11.50;99.90
18041;DHT22;9145;48.588;9.250;2023-02-22T10:26:44;11.40;99.90
18041;DHT22;9145;48.588;9.250;2023-02-22T10:29:18;11.30;99.90
18041;DHT22;9145;48.588;9.250;2023-02-22T10:31:51;11.20;99.90
18041;DHT22;9145;48.588;9.250;2023-02-22T10:34:24;11.30;99.90
18041;DHT22;9145;48.588;9.250;2023-02-22T10:36:57;11.40;99.90
18041;DHT22;9145;48.588;9.250;2023-02-22T10:39:27;11.40;99.90
18041;DHT22;9145;48.588;9.250;2023-02-22T10:41:58;11.50;99.90
18041;DHT22;9145;48.588;9.250;2023-02-22T10:44:30;11.70;99.90
18041;DHT22;9145;48.588;9.250;2023-02-22T10:46:58;11.90;99.90
18041;DHT22;9145;48.588;9.250;2023-02-22T10:49:32;12.20;99.90
18041;DHT22;9145;48.588;9.250;2023-02-22T10:52:02;12.50;99.90
18041;DHT22;9145;48.588;9.250;2023-02-22T10:54:31;12.70;99.90
18041;DHT22;9145;48.588;9.250;2023-02-22T10:56:59;12.80;99.90
18041;DHT22;9145;48.588;9.250;2023-02-22T10:59:31;12.80;99.90
18041;DHT22;9145;48.588;9.250;2023-02-22T11:01:59;12.90;99.90
18041;DHT22;9145;48.588;9.250;2023-02-22T11:04:44;12.90;99.90
18041;DHT22;9145;48.588;9.250;2023-02-22T11:07:19;12.90;99.90
18041;DHT22;9145;48.588;9.250;2023-02-22T11:09:50;13.00;99.90
18041;DHT22;9145;48.588;9.250;2023-02-22T11:12:20;12.90;99.90
18041;DHT22;9145;48.588;9.250;2023-02-22T11:14:47;13.00;99.90
18041;DHT22;9145;48.588;9.250;2023-02-22T11:17:20;13.00;99.90
18041;DHT22;9145;48.588;9.250;2023-02-22T11:19:51;13.20;99.90
18041;DHT22;9145;48.588;9.250;2023-02-22T11:22:21;13.20;99.90
18041;DHT22;9145;48.588;9.250;2023-02-22T11:24:51;13.20;99.90
18041;DHT22;9145;48.588;9.250;2023-02-22T11:27:33;13.30;99.90
18041;DHT22;9145;48.588;9.250;2023-02-22T11:30:20;13.30;99.90
18041;DHT22;9145;48.588;9.250;2023-02-22T11:32:51;13.40;99.90
18041;DHT22;9145;48.588;9.250;2023-02-22T11:35:34;13.60;99.90
18041;DHT22;9145;48.588;9.250;2023-02-22T11:38:17;13.70;99.90
18041;DHT22;9145;48.588;9.250;2023-02-22T11:40:46;13.80;99.90
18041;DHT22;9145;48.588;9.250;2023-02-22T11:43:16;14.00;99.90
18041;DHT22;9145;48.588;9.250;2023-02-22T11:45:57;14.00;99.90
18041;DHT22;9145;48.588;9.250;2023-02-22T11:48:29;14.00;99.90
18041;DHT22;9145;48.588;9.250;2023-02-22T11:51:09;14.10;99.90
18041;DHT22;9145;48.588;9.250;2023-02-22T11:56:30;14.20;99.90
18041;DHT22;9145;48.588;9.250;2023-02-22T11:59:05;14.40;99.90
18041;DHT22;9145;48.588;9.250;2023-02-22T12:01:40;14.70;99.90
18041;DHT22;9145;48.588;9.250;2023-02-22T12:04:37;14.90;99.90
18041;DHT22;9145;48.588;9.250;2023-02-22T12:07:27;15.00;99.90
18041;DHT22;9145;48.588;9.250;2023-02-22T12:10:07;15.20;99.90
18041;DHT22;9145;48.588;9.250;2023-02-22T12:12:43;15.20;99.90
18041;DHT22;9145;48.588;9.250;2023-02-22T12:15:23;15.40;99.90
18041;DHT22;9145;48.588;9.250;2023-02-22T12:17:58;15.50;99.90
18041;DHT22;9145;48.588;9.250;2023-02-22T12:20:30;15.50;99.90
18041;DHT22;9145;48.588;9.250;2023-02-22T12:23:11;15.60;99.90
18041;DHT22;9145;48.588;9.250;2023-02-22T12:25:47;15.70;99.90
18041;DHT22;9145;48.588;9.250;2023-02-22T12:28:18;15.70;99.90
18041;DHT22;9145;48.588;9.250;2023-02-22T12:30:52;15.80;99.90
18041;DHT22;9145;48.588;9.250;2023-02-22T12:33:25;15.80;99.90
18041;DHT22;9145;48.588;9.250;2023-02-22T12:35:55;15.80;99.90
18041;DHT22;9145;48.588;9.250;2023-02-22T12:38:29;15.90;99.90
18041;DHT22;9145;48.588;9.250;2023-02-22T12:41:00;15.90;99.90
18041;DHT22;9145;48.588;9.250;2023-02-22T12:43:33;15.80;99.90
18041;DHT22;9145;48.588;9.250;2023-02-22T12:46:05;15.90;99.90
18041;DHT22;9145;48.588;9.250;2023-02-22T12:48:41;16.10;99.90
18041;DHT22;9145;48.588;9.250;2023-02-22T12:51:18;16.30;99.90
18041;DHT22;9145;48.588;9.250;2023-02-22T12:53:55;16.40;99.90
18041;DHT22;9145;48.588;9.250;2023-02-22T12:56:30;16.40;99.90
18041;DHT22;9145;48.588;9.250;2023-02-22T12:59:02;16.50;99.90
18041;DHT22;9145;48.588;9.250;2023-02-22T13:01:36;16.50;99.90
18041;DHT22;9145;48.588;9.250;2023-02-22T13:04:04;16.80;99.90
18041;DHT22;9145;48.588;9.250;2023-02-22T13:09:50;16.90;99.90
18041;DHT22;9145;48.588;9.250;2023-02-22T13:12:25;16.70;99.90
18041;DHT22;9145;48.588;9.250;2023-02-22T13:15:01;16.90;99.90
18041;DHT22;9145;48.588;9.250;2023-02-22T13:17:38;17.10;99.90
18041;DHT22;9145;48.588;9.250;2023-02-22T13:20:13;17.10;99.90
18041;DHT22;9145;48.588;9.250;2023-02-22T13:22:46;17.30;99.90
18041;DHT22;9145;48.588;9.250;2023-02-22T13:25:19;17.30;99.90
18041;DHT22;9145;48.588;9.250;2023-02-22T13:27:51;17.60;99.90
18041;DHT22;9145;48.588;9.250;2023-02-22T13:30:23;17.80;99.90
18041;DHT22;9145;48.588;9.250;2023-02-22T13:33:17;17.80;99.90
18041;DHT22;9145;48.588;9.250;2023-02-22T13:36:02;17.60;99.90
18041;DHT22;9145;48.588;9.250;2023-02-22T13:39:01;17.50;99.90
18041;DHT22;9145;48.588;9.250;2023-02-22T13:41:50;17.40;99.90
18041;DHT22;9145;48.588;9.250;2023-02-22T13:47:37;17.30;99.90
18041;DHT22;9145;48.588;9.250;2023-02-22T13:50:40;17.30;99.90
18041;DHT22;9145;48.588;9.250;2023-02-22T13:53:12;16.90;99.90
18041;DHT22;9145;48.588;9.250;2023-02-22T13:55:40;16.70;99.90
18041;DHT22;9145;48.588;9.250;2023-02-22T13:58:13;16.60;99.90
18041;DHT22;9145;48.588;9.250;2023-02-22T14:00:43;16.60;99.90
18041;DHT22;9145;48.588;9.250;2023-02-22T14:03:32;16.60;99.90
18041;DHT22;9145;48.588;9.250;2023-02-22T14:06:02;16.40;99.90
18041;DHT22;9145;48.588;9.250;2023-02-22T14:08:45;16.40;99.90
18041;DHT22;9145;48.588;9.250;2023-02-22T14:14:23;16.30;99.90
18041;DHT22;9145;48.588;9.250;2023-02-22T14:17:18;16.00;99.90
18041;DHT22;9145;48.588;9.250;2023-02-22T14:20:00;16.00;99.90
18041;DHT22;9145;48.588;9.250;2023-02-22T14:22:29;16.00;99.90
18041;DHT22;9145;48.588;9.250;2023-02-22T14:24:56;16.00;99.90
18041;DHT22;9145;48.588;9.250;2023-02-22T14:27:23;16.10;99.90
18041;DHT22;9145;48.588;9.250;2023-02-22T14:29:55;16.40;99.90
18041;DHT22;9145;48.588;9.250;2023-02-22T14:32:30;16.40;99.90
18041;DHT22;9145;48.588;9.250;2023-02-22T14:34:57;16.40;99.90
18041;DHT22;9145;48.588;9.250;2023-02-22T14:37:26;16.30;99.90
18041;DHT22;9145;48.588;9.250;2023-02-22T14:39:58;16.30;99.90
18041;DHT22;9145;48.588;9.250;2023-02-22T14:42:39;16.20;99.90
18041;DHT22;9145;48.588;9.250;2023-02-22T14:45:18;16.20;99.90
18041;DHT22;9145;48.588;9.250;2023-02-22T14:47:53;16.20;99.90
18041;DHT22;9145;48.588;9.250;2023-02-22T14:50:36;16.10;99.90
18041;DHT22;9145;48.588;9.250;2023-02-22T14:53:05;16.00;99.90
18041;DHT22;9145;48.588;9.250;2023-02-22T14:55:37;15.90;99.90
18041;DHT22;9145;48.588;9.250;2023-02-22T14:58:09;15.90;99.90
18041;DHT22;9145;48.588;9.250;2023-02-22T15:00:41;16.00;99.90
18041;DHT22;9145;48.588;9.250;2023-02-22T15:03:18;16.10;99.90
18041;DHT22;9145;48.588;9.250;2023-02-22T15:05:45;16.10;99.90
18041;DHT22;9145;48.588;9.250;2023-02-22T15:08:15;16.00;99.90
18041;DHT22;9145;48.588;9.250;2023-02-22T15:10:44;15.90;99.90
18041;DHT22;9145;48.588;9.250;2023-02-22T15:13:17;15.90;99.90
18041;DHT22;9145;48.588;9.250;2023-02-22T15:15:47;15.90;99.90
18041;DHT22;9145;48.588;9.250;2023-02-22T15:18:20;15.90;99.90
18041;DHT22;9145;48.588;9.250;2023-02-22T15:20:50;15.80;99.90
18041;DHT22;9145;48.588;9.250;2023-02-22T15:23:22;15.80;99.90
18041;DHT22;9145;48.588;9.250;2023-02-22T15:25:49;15.70;99.90
18041;DHT22;9145;48.588;9.250;2023-02-22T15:28:17;15.60;99.90
18041;DHT22;9145;48.588;9.250;2023-02-22T15:30:45;15.50;99.90
18041;DHT22;9145;48.588;9.250;2023-02-22T15:33:16;15.40;99.90
18041;DHT22;9145;48.588;9.250;2023-02-22T15:35:55;15.30;99.90
18041;DHT22;9145;48.588;9.250;2023-02-22T15:38:27;15.20;99.90
18041;DHT22;9145;48.588;9.250;2023-02-22T15:40:59;15.20;99.90
18041;DHT22;9145;48.588;9.250;2023-02-22T15:43:27;15.10;99.90
18041;DHT22;9145;48.588;9.250;2023-02-22T15:45:57;15.00;99.90
18041;DHT22;9145;48.588;9.250;2023-02-22T15:48:24;15.00;99.90
18041;DHT22;9145;48.588;9.250;2023-02-22T15:51:00;15.00;99.90
18041;DHT22;9145;48.588;9.250;2023-02-22T15:53:31;14.90;99.90
18041;DHT22;9145;48.588;9.250;2023-02-22T15:56:05;14.90;99.90
18041;DHT22;9145;48.588;9.250;2023-02-22T15:58:34;14.80;99.90
18041;DHT22;9145;48.588;9.250;2023-02-22T16:01:06;14.80;99.90
18041;DHT22;9145;48.588;9.250;2023-02-22T16:03:37;14.70;99.90
18041;DHT22;9145;48.588;9.250;2023-02-22T16:06:11;14.60;99.90
18041;DHT22;9145;48.588;9.250;2023-02-22T16:08:42;14.60;99.90
18041;DHT22;9145;48.588;9.250;2023-02-22T16:11:13;14.60;99.90
18041;DHT22;9145;48.588;9.250;2023-02-22T16:13:51;14.60;99.90
18041;DHT22;9145;48.588;9.250;2023-02-22T16:16:26;14.50;99.90
18041;DHT22;9145;48.588;9.250;2023-02-22T16:19:23;14.40;99.90
18041;DHT22;9145;48.588;9.250;2023-02-22T16:21:52;14.40;99.90
18041;DHT22;9145;48.588;9.250;2023-02-22T16:24:24;14.40;99.90
18041;DHT22;9145;48.588;9.250;2023-02-22T16:27:03;14.40;99.90
18041;DHT22;9145;48.588;9.250;2023-02-22T16:29:30;14.30;99.90
18041;DHT22;9145;48.588;9.250;2023-02-22T16:31:58;14.20;99.90
18041;DHT22;9145;48.588;9.250;2023-02-22T16:34:26;14.20;99.90